Time;durP1;ratioP1;P1;durP2;ratioP2;P2;SDS_P1;SDS_P2;PMS_P1;PMS_P2;Temp;Humidity;BMP_temperature;BMP_pressure;BME280_temperature;BME280_humidity;BME280_pressure;Samples;Min_cycle;Max_cycle;Signal;HPM_P1;HPM_P2
2022/08/15 00:01:41;;;;;;;12.18;10.85;;;;;;;22.81;70.05;100212.75;5085936;28;20028;-67
2022/08/15 00:04:08;;;;;;;12.40;11.15;;;;;;;22.79;70.84;100226.00;5085740;28;20098;-67
2022/08/15 00:06:45;;;;;;;12.02;11.00;;;;;;;22.79;69.96;100226.84;5086320;28;20034;-67
2022/08/15 00:09:18;;;;;;;11.50;10.60;;;;;;;22.79;69.75;100224.22;5085916;28;20496;-67
2022/08/15 00:11:46;;;;;;;13.43;12.25;;;;;;;22.78;70.08;100230.41;5088939;28;20048;-67
2022/08/15 00:14:21;;;;;;;11.73;10.73;;;;;;;22.77;70.12;100227.81;5089412;28;20395;-67
2022/08/15 00:16:47;;;;;;;11.93;10.95;;;;;;;22.73;70.30;100226.16;5088842;28;20028;-67
2022/08/15 00:19:16;;;;;;;12.18;11.18;;;;;;;22.67;70.84;100221.91;5089139;28;20039;-68
2022/08/15 00:21:46;;;;;;;12.43;11.32;;;;;;;22.62;71.30;100229.97;5089696;28;20334;-67
2022/08/15 00:24:15;;;;;;;12.07;10.90;;;;;;;22.53;71.94;100225.78;5089697;28;20031;-67
2022/08/15 00:26:44;;;;;;;11.60;10.63;;;;;;;22.50;72.42;100225.91;5089158;28;20273;-67
2022/08/15 00:29:11;;;;;;;11.80;10.70;;;;;;;22.47;71.90;100235.66;5079138;28;20020;-67
2022/08/15 00:31:36;;;;;;;11.13;10.13;;;;;;;22.48;71.61;100232.97;5069902;28;20024;-67
2022/08/15 00:34:03;;;;;;;10.95;10.05;;;;;;;22.50;71.51;100233.81;5088814;28;20434;-67
2022/08/15 00:36:30;;;;;;;12.60;11.50;;;;;;;22.54;71.25;100224.88;5089529;28;20637;-67
2022/08/15 00:38:56;;;;;;;11.73;10.80;;;;;;;22.54;72.18;100230.16;5088973;28;20060;-67
2022/08/15 00:41:39;;;;;;;12.60;11.55;;;;;;;22.49;72.66;100232.06;5088652;28;20062;-67
2022/08/15 00:44:10;;;;;;;13.10;11.77;;;;;;;22.40;72.62;100229.66;5088997;28;20062;-66
2022/08/15 00:46:36;;;;;;;;;;;;;;;22.33;73.10;100226.34;5088566;28;20035;-67
2022/08/15 00:49:02;;;;;;;13.13;11.82;;;;;;;22.30;73.39;100223.78;5088785;28;19911;-66
2022/08/15 00:51:34;;;;;;;13.02;11.85;;;;;;;22.27;73.92;100223.88;5089406;28;20425;-67
2022/08/15 00:54:45;;;;;;;12.63;10.73;;;;;;;22.20;73.51;100223.16;5088752;28;20032;-67
2022/08/15 00:57:20;;;;;;;11.55;10.55;;;;;;;22.18;74.10;100228.47;5084758;28;20043;-67
2022/08/15 00:59:51;;;;;;;12.00;11.02;;;;;;;22.19;74.20;100232.00;5088635;28;20021;-67
2022/08/15 01:02:19;;;;;;;11.73;10.68;;;;;;;22.16;74.91;100232.91;5089235;28;20027;-67
2022/08/15 01:04:45;;;;;;;12.02;10.95;;;;;;;22.16;74.56;100224.16;5088848;28;20047;-67
2022/08/15 01:07:11;;;;;;;12.45;11.25;;;;;;;22.13;74.90;100227.72;5088669;28;20031;-67
2022/08/15 01:09:37;;;;;;;12.57;11.40;;;;;;;22.11;73.97;100229.53;5088052;28;20063;-66
2022/08/15 01:12:13;;;;;;;11.63;10.63;;;;;;;22.07;74.40;100228.75;5088529;28;20513;-67
2022/08/15 01:14:43;;;;;;;12.10;11.00;;;;;;;22.05;74.37;100229.72;5072776;28;20020;-67
2022/08/15 01:17:09;;;;;;;12.27;11.20;;;;;;;22.07;72.00;100223.47;5089049;28;20282;-67
2022/08/15 01:19:53;;;;;;;11.73;10.73;;;;;;;22.14;70.45;100223.34;5088262;28;20915;-67
2022/08/15 01:22:56;;;;;;;11.23;10.18;;;;;;;22.17;69.72;100228.53;5087041;28;20040;-67
2022/08/15 01:25:46;;;;;;;12.13;11.07;;;;;;;22.16;69.61;100232.06;5088422;28;20035;-67
2022/08/15 01:28:17;;;;;;;11.80;10.60;;;;;;;22.11;69.88;100220.78;5088614;28;20468;-67
2022/08/15 01:30:52;;;;;;;11.75;10.65;;;;;;;22.05;70.43;100230.59;5088051;28;20031;-67
2022/08/15 01:33:19;;;;;;;10.63;9.63;;;;;;;22.00;70.34;100221.91;5087821;28;20137;-67
2022/08/15 01:35:46;;;;;;;9.85;8.88;;;;;;;21.98;69.22;100223.75;5088267;28;20422;-67
2022/08/15 01:38:42;;;;;;;9.15;8.30;;;;;;;21.96;68.38;100215.00;5088326;28;20028;-67
2022/08/15 01:41:21;;;;;;;8.23;7.40;;;;;;;21.98;65.67;100212.31;5081916;28;20055;-67
2022/08/15 01:43:57;;;;;;;9.77;7.10;;;;;;;22.01;65.27;100213.09;5086830;28;20028;-67
2022/08/15 01:46:28;;;;;;;7.03;6.22;;;;;;;21.97;65.21;100229.91;5087691;28;20072;-67
2022/08/15 01:49:01;;;;;;;7.07;6.38;;;;;;;21.93;64.09;100228.25;5087642;28;20039;-67
2022/08/15 01:51:27;;;;;;;6.05;5.30;;;;;;;21.92;63.43;100229.16;5087521;28;20032;-67
2022/08/15 01:53:59;;;;;;;4.97;4.45;;;;;;;21.90;61.39;100230.97;5087580;28;20528;-67
2022/08/15 01:56:38;;;;;;;6.18;4.10;;;;;;;21.89;61.27;100234.50;5087014;28;20372;-67
2022/08/15 01:59:06;;;;;;;4.90;3.80;;;;;;;21.90;59.39;100230.97;5087466;28;20028;-67
2022/08/15 02:01:56;;;;;;;5.93;2.78;;;;;;;21.89;57.55;100224.81;5087587;28;20190;-67
2022/08/15 02:04:41;;;;;;;4.70;3.53;;;;;;;21.90;58.58;100226.56;5087893;28;20043;-67
2022/08/15 02:07:10;;;;;;;5.30;3.13;;;;;;;21.89;58.32;100221.34;5087602;28;20024;-67
2022/08/15 02:09:36;;;;;;;3.03;2.72;;;;;;;21.88;56.90;100232.75;5087344;28;20016;-67
2022/08/15 02:12:06;;;;;;;3.42;2.85;;;;;;;21.89;57.82;100235.34;5087127;28;20055;-67
2022/08/15 02:14:33;;;;;;;4.13;2.78;;;;;;;21.88;57.19;100224.84;5087509;28;20027;-67
2022/08/15 02:16:59;;;;;;;3.13;2.28;;;;;;;21.88;55.67;100228.38;5086968;28;20051;-67
2022/08/15 02:19:25;;;;;;;3.03;2.58;;;;;;;21.91;56.31;100222.16;5087005;28;20020;-67
2022/08/15 02:21:50;;;;;;;5.35;2.33;;;;;;;21.92;55.62;100222.13;5087083;28;20038;-67
2022/08/15 02:24:19;;;;;;;2.88;2.40;;;;;;;21.93;56.00;100222.97;5086865;28;20032;-66
2022/08/15 02:26:45;;;;;;;3.72;2.67;;;;;;;21.92;56.02;100224.75;5087049;28;20107;-67
2022/08/15 02:29:11;;;;;;;2.78;2.47;;;;;;;21.91;56.30;100228.28;5086283;28;20095;-67
2022/08/15 02:31:37;;;;;;;3.17;2.70;;;;;;;21.90;56.97;100223.94;5074895;28;20020;-67
2022/08/15 02:34:03;;;;;;;3.10;2.33;;;;;;;21.87;56.46;100231.03;5086525;28;20050;-66
2022/08/15 02:36:32;;;;;;;2.75;2.28;;;;;;;21.80;56.88;100223.28;5087312;28;20822;-67
2022/08/15 02:39:00;;;;;;;3.35;2.40;;;;;;;21.76;57.60;100213.69;5086831;28;20204;-67
2022/08/15 02:41:33;;;;;;;3.70;2.67;;;;;;;21.75;56.66;100226.91;5059219;28;20396;-67
2022/08/15 02:43:59;;;;;;;3.45;3.05;;;;;;;21.71;57.28;100223.50;5085732;28;20036;-66
2022/08/15 02:46:26;;;;;;;6.25;2.70;;;;;;;21.66;58.21;100233.28;5071318;28;20486;-67
2022/08/15 02:48:51;;;;;;;3.72;2.70;;;;;;;21.62;57.91;100226.34;5085796;28;20091;-67
2022/08/15 02:51:18;;;;;;;3.67;2.58;;;;;;;21.56;58.83;100233.50;5086587;28;20209;-67
2022/08/15 02:53:48;;;;;;;2.80;2.60;;;;;;;21.53;58.81;100241.47;5086635;28;20456;-67
2022/08/15 02:56:18;;;;;;;3.47;3.08;;;;;;;21.52;57.47;100237.09;5086162;28;20062;-67
2022/08/15 02:58:44;;;;;;;2.50;2.30;;;;;;;21.53;58.62;100238.84;5086239;28;20024;-67
2022/08/15 03:01:10;;;;;;;2.80;2.60;;;;;;;21.54;57.81;100232.66;5086622;28;20027;-67
2022/08/15 03:03:38;;;;;;;3.22;2.38;;;;;;;21.53;57.04;100230.06;5086546;28;20475;-67
2022/08/15 03:06:08;;;;;;;3.50;2.53;;;;;;;21.54;57.69;100227.38;5066968;28;20113;-67
2022/08/15 03:08:38;;;;;;;3.07;2.63;;;;;;;21.51;58.15;100240.66;5075706;28;20028;-67
2022/08/15 03:11:06;;;;;;;2.90;2.33;;;;;;;21.48;57.85;100231.03;5085939;28;20281;-66
2022/08/15 03:13:31;;;;;;;6.10;2.65;;;;;;;21.45;57.89;100227.59;5077790;28;20024;-67
2022/08/15 03:15:58;;;;;;;3.17;2.65;;;;;;;21.42;58.41;100232.94;5074503;28;20032;-67
2022/08/15 03:18:25;;;;;;;2.60;2.40;;;;;;;21.34;58.44;100241.00;5086541;28;20028;-67
2022/08/15 03:20:51;;;;;;;3.72;2.60;;;;;;;21.26;57.41;100250.88;5085984;28;20472;-67
2022/08/15 03:23:19;;;;;;;4.20;2.55;;;;;;;21.24;57.84;100248.28;5082437;28;20081;-67
2022/08/15 03:25:48;;;;;;;3.35;2.53;;;;;;;21.21;57.27;100243.06;5075152;28;20042;-67
2022/08/15 03:28:16;;;;;;;3.47;2.65;;;;;;;21.21;57.21;100237.78;5086416;28;20531;-66
2022/08/15 03:30:41;;;;;;;3.70;2.40;;;;;;;21.22;57.79;100242.16;5086605;28;20425;-67
2022/08/15 03:33:07;;;;;;;3.45;2.40;;;;;;;21.19;58.56;100235.19;5085655;28;20055;-67
2022/08/15 03:35:39;;;;;;;5.75;3.58;;;;;;;21.18;58.03;100232.59;5086131;28;20038;-67
2022/08/15 03:38:05;;;;;;;2.67;2.47;;;;;;;21.19;58.44;100234.34;5086168;28;20020;-67
2022/08/15 03:40:30;;;;;;;3.42;2.47;;;;;;;21.18;58.68;100237.84;5086186;28;20046;-68
2022/08/15 03:42:59;;;;;;;3.15;2.58;;;;;;;21.14;58.83;100241.47;5086062;28;20406;-67
2022/08/15 03:45:26;;;;;;;4.80;2.67;;;;;;;21.11;58.38;100242.41;5087570;28;20047;-67
2022/08/15 03:47:53;;;;;;;3.35;2.60;;;;;;;21.08;59.13;100238.06;5089626;28;20039;-67
2022/08/15 03:50:19;;;;;;;3.75;2.78;;;;;;;21.02;59.08;100248.72;5090240;28;20099;-67
2022/08/15 03:53:12;;;;;;;2.60;2.40;;;;;;;20.87;58.55;100253.38;5090357;28;20016;-67
2022/08/15 03:55:39;;;;;;;10.57;3.33;;;;;;;20.84;58.90;100256.09;5085309;28;20064;-67
2022/08/15 03:58:05;;;;;;;4.78;3.00;;;;;;;20.78;59.32;100257.97;5089485;28;20030;-67
2022/08/15 04:00:44;;;;;;;4.45;3.20;;;;;;;20.76;59.62;100250.09;5089832;28;20392;-67
2022/08/15 04:03:16;;;;;;;3.88;3.53;;;;;;;20.74;60.17;100251.91;5089811;28;20020;-67
2022/08/15 04:05:49;;;;;;;4.78;3.33;;;;;;;20.73;60.42;100252.78;5089717;28;20368;-67
2022/08/15 04:08:15;;;;;;;6.38;3.45;;;;;;;20.74;60.39;100250.13;5089901;28;20028;-67
2022/08/15 04:10:41;;;;;;;4.13;3.30;;;;;;;20.78;60.53;100243.03;5089109;28;20024;-67
2022/08/15 04:13:07;;;;;;;3.50;2.83;;;;;;;20.79;61.11;100244.78;5081209;28;20120;-67
2022/08/15 04:15:33;;;;;;;3.80;2.80;;;;;;;20.79;61.62;100241.28;5082796;28;20119;-67
2022/08/15 04:17:59;;;;;;;4.28;3.17;;;;;;;20.78;62.24;100250.94;5088562;28;20115;-67
2022/08/15 04:20:24;;;;;;;7.03;3.00;;;;;;;20.78;62.48;100256.19;5087755;28;20658;-66
2022/08/15 04:22:50;;;;;;;7.68;3.10;;;;;;;20.78;62.70;100258.81;5074542;28;20494;-66
2022/08/15 04:25:22;;;;;;;5.28;3.00;;;;;;;20.79;62.97;100257.94;5087196;28;20577;-67
2022/08/15 04:27:50;;;;;;;5.25;3.30;;;;;;;20.81;63.18;100256.16;5087817;28;20024;-67
2022/08/15 04:30:16;;;;;;;4.35;2.97;;;;;;;20.81;63.99;100261.41;5088640;28;20391;-66
2022/08/15 04:32:42;;;;;;;4.75;3.40;;;;;;;20.75;64.39;100257.13;5089053;28;20027;-67
2022/08/15 04:35:10;;;;;;;3.33;3.00;;;;;;;20.74;64.11;100250.13;5089771;28;20073;-66
2022/08/15 04:37:37;;;;;;;5.93;2.97;;;;;;;20.73;64.73;100255.41;5073779;28;20029;-67
2022/08/15 04:40:04;;;;;;;3.90;3.30;;;;;;;20.74;65.04;100265.06;5088197;28;20168;-66
2022/08/15 04:42:30;;;;;;;4.90;3.67;;;;;;;20.73;65.23;100268.59;5086235;28;20476;-66
2022/08/15 04:44:55;;;;;;;5.20;3.13;;;;;;;20.70;65.99;100261.63;5083187;28;20678;-67
2022/08/15 04:47:21;;;;;;;5.72;3.63;;;;;;;20.67;66.29;100260.81;5075448;28;20157;-67
2022/08/15 04:49:46;;;;;;;7.57;3.60;;;;;;;20.67;66.52;100263.44;5089469;28;20081;-67
2022/08/15 04:52:18;;;;;;;5.22;3.70;;;;;;;20.68;66.67;100259.91;5088662;28;20209;-67
2022/08/15 04:54:45;;;;;;;8.48;3.15;;;;;;;20.68;67.31;100262.53;5081489;28;20024;-67
2022/08/15 04:57:12;;;;;;;5.00;3.65;;;;;;;20.71;66.93;100258.09;5075517;28;20395;-67
2022/08/15 04:59:39;;;;;;;4.38;3.65;;;;;;;20.72;67.39;100266.84;5086821;28;20016;-67
2022/08/15 05:02:11;;;;;;;5.18;3.28;;;;;;;20.70;67.62;100279.19;5080747;28;20063;-66
2022/08/15 05:04:36;;;;;;;3.58;3.10;;;;;;;20.72;68.22;100280.88;5070360;28;20449;-66
2022/08/15 05:07:02;;;;;;;5.25;3.90;;;;;;;20.72;68.64;100287.91;5072573;28;20025;-67
2022/08/15 05:09:27;;;;;;;4.15;3.00;;;;;;;20.76;68.58;100279.03;5073563;28;20028;-67
2022/08/15 05:11:53;;;;;;;4.32;3.00;;;;;;;20.82;68.68;100283.31;5076145;28;20479;-66
2022/08/15 05:14:18;;;;;;;3.67;3.30;;;;;;;20.87;69.25;100282.34;5078163;28;20035;-66
2022/08/15 05:16:44;;;;;;;6.57;3.63;;;;;;;20.94;68.88;100263.81;5080832;28;20103;-67
2022/08/15 05:19:10;;;;;;;5.32;3.55;;;;;;;20.99;68.87;100277.78;5082191;28;20462;-67
2022/08/15 05:21:37;;;;;;;6.80;3.70;;;;;;;21.03;69.29;100282.06;5084409;28;20026;-66
2022/08/15 05:24:03;;;;;;;6.05;3.65;;;;;;;21.05;68.92;100277.63;5086426;28;20109;-66
2022/08/15 05:26:28;;;;;;;5.32;3.20;;;;;;;21.06;69.05;100282.00;5081383;28;20074;-66
2022/08/15 05:28:54;;;;;;;3.95;3.05;;;;;;;21.09;69.09;100281.94;5069939;28;20481;-66
2022/08/15 05:31:19;;;;;;;4.45;3.55;;;;;;;21.11;70.38;100285.41;5072281;28;20353;-66
2022/08/15 05:33:46;;;;;;;5.45;3.58;;;;;;;21.11;69.24;100281.91;5074521;28;20066;-67
2022/08/15 05:36:11;;;;;;;4.18;3.28;;;;;;;21.14;69.56;100291.53;5078799;28;20054;-67
2022/08/15 05:38:48;;;;;;;5.10;3.17;;;;;;;21.10;69.69;100296.84;5078196;28;20464;-67
2022/08/15 05:41:43;;;;;;;5.45;3.45;;;;;;;21.10;70.34;100288.94;5077442;28;20056;-66
2022/08/15 05:44:35;;;;;;;3.75;3.35;;;;;;;21.09;71.15;100296.88;5073720;28;20043;-66
2022/08/15 05:47:07;;;;;;;6.70;4.65;;;;;;;21.07;72.91;100299.53;5088086;28;20467;-66
2022/08/15 05:49:44;;;;;;;5.82;3.90;;;;;;;21.09;73.24;100297.75;5073202;28;20028;-66
2022/08/15 05:52:33;;;;;;;8.32;4.43;;;;;;;21.10;74.04;100310.00;5085816;28;20030;-66
2022/08/15 05:55:25;;;;;;;8.68;4.10;;;;;;;21.10;74.09;100296.00;5058574;28;20547;-67
2022/08/15 05:58:05;;;;;;;4.30;3.65;;;;;;;21.08;73.46;100301.25;5071551;28;20031;-66
2022/08/15 06:00:32;;;;;;;5.43;3.92;;;;;;;21.10;73.58;100303.88;5084074;28;20408;-66
2022/08/15 06:03:05;;;;;;;9.35;4.13;;;;;;;21.10;72.73;100301.25;5067841;28;20492;-66
2022/08/15 06:05:40;;;;;;;7.07;3.90;;;;;;;21.17;74.45;100307.25;5062446;28;20016;-66
2022/08/15 06:08:14;;;;;;;8.75;3.90;;;;;;;21.21;73.16;100306.28;5062158;28;20032;-67
2022/08/15 06:10:47;;;;;;;7.20;3.50;;;;;;;21.23;72.89;100312.38;5062082;28;20095;-66
2022/08/15 06:13:17;;;;;;;6.75;3.95;;;;;;;21.28;72.38;100315.78;5064037;28;20027;-66
2022/08/15 06:16:16;;;;;;;4.95;2.53;;;;;;;21.35;72.45;100321.81;5062048;28;20473;-66
2022/08/15 06:18:43;;;;;;;5.22;3.65;;;;;;;21.42;72.40;100312.88;5059393;28;20026;-67
2022/08/15 06:21:24;;;;;;;4.65;3.38;;;;;;;21.48;72.19;100320.63;5058477;28;20029;-66
2022/08/15 06:24:26;;;;;;;8.23;3.67;;;;;;;21.52;72.00;100310.88;5061222;28;20040;-67
2022/08/15 06:27:05;;;;;;;7.05;3.83;;;;;;;21.56;72.13;100307.28;5062177;28;20013;-66
2022/08/15 06:29:52;;;;;;;5.93;3.85;;;;;;;21.58;72.31;100307.25;5057758;28;20025;-66
2022/08/15 06:32:40;;;;;;;5.60;3.45;;;;;;;21.63;72.43;100307.13;5059926;28;20030;-66
2022/08/15 06:35:31;;;;;;;6.38;4.30;;;;;;;21.63;72.57;100301.88;5064757;28;20240;-67
2022/08/15 06:38:05;;;;;;;7.13;4.10;;;;;;;21.68;72.98;100306.13;5066701;28;20016;-67
2022/08/15 06:40:51;;;;;;;5.07;3.83;;;;;;;21.66;73.23;100304.44;5056851;28;20048;-67
2022/08/15 06:43:16;;;;;;;6.35;3.65;;;;;;;21.71;73.25;100300.78;5062956;28;20020;-67
2022/08/15 06:45:46;;;;;;;7.13;4.10;;;;;;;21.63;73.93;100307.13;5062097;28;20039;-67
2022/08/15 06:48:16;;;;;;;7.13;4.45;;;;;;;21.59;74.29;100309.84;5060559;28;20074;-67
2022/08/15 06:50:48;;;;;;;5.57;3.70;;;;;;;21.57;74.33;100314.28;5057714;28;20028;-67
2022/08/15 06:53:22;;;;;;;5.18;3.90;;;;;;;21.63;74.45;100315.03;5059075;28;20081;-66
2022/08/15 06:55:55;;;;;;;5.97;4.15;;;;;;;21.63;75.27;100326.47;5050380;28;20021;-66
2022/08/15 06:58:39;;;;;;;4.88;3.60;;;;;;;21.66;74.84;100317.63;5053394;28;20041;-66
2022/08/15 07:01:19;;;;;;;5.75;4.43;;;;;;;21.66;75.27;100317.63;5060637;28;20017;-66
2022/08/15 07:04:17;;;;;;;6.22;4.22;;;;;;;21.76;75.26;100308.59;5053135;28;20090;-67
2022/08/15 07:06:54;;;;;;;4.78;3.67;;;;;;;21.81;74.33;100301.47;5060277;28;20488;-66
2022/08/15 07:09:35;;;;;;;4.70;3.90;;;;;;;21.93;73.94;100297.69;5051724;28;20154;-67
2022/08/15 07:12:26;;;;;;;5.82;4.18;;;;;;;21.98;74.62;100302.84;5051896;28;20024;-67
2022/08/15 07:15:15;;;;;;;6.05;4.53;;;;;;;22.01;74.32;100309.81;5051695;28;20216;-67
2022/08/15 07:17:54;;;;;;;5.90;4.45;;;;;;;22.02;74.06;100315.03;5062018;28;20016;-67
2022/08/15 07:20:19;;;;;;;6.68;4.15;;;;;;;22.06;74.11;100306.16;5078729;28;20028;-67
2022/08/15 07:22:45;;;;;;;5.22;4.22;;;;;;;22.11;73.64;100300.75;5070978;28;20024;-68
2022/08/15 07:25:15;;;;;;;5.63;4.47;;;;;;;22.19;73.84;100297.94;5066083;28;20423;-67
2022/08/15 07:27:41;;;;;;;4.80;4.40;;;;;;;22.27;73.59;100303.88;5073490;28;20109;-67
2022/08/15 07:30:19;;;;;;;6.07;4.68;;;;;;;22.31;73.09;100305.53;5076099;28;20054;-67
2022/08/15 07:32:51;;;;;;;6.72;5.00;;;;;;;22.29;73.19;100304.72;5070163;28;20024;-67
2022/08/15 07:35:24;;;;;;;6.40;4.45;;;;;;;22.30;73.56;100295.91;5064641;28;20021;-67
2022/08/15 07:37:59;;;;;;;4.55;4.10;;;;;;;22.34;73.25;100304.59;5065030;28;20029;-67
2022/08/15 07:40:34;;;;;;;5.93;4.68;;;;;;;22.37;72.91;100301.88;5063385;28;20076;-67
2022/08/15 07:43:02;;;;;;;5.57;4.65;;;;;;;22.39;73.13;100307.13;5056307;28;20155;-67
2022/08/15 07:45:46;;;;;;;4.93;4.20;;;;;;;22.39;73.33;100309.75;5061054;28;20114;-67
2022/08/15 07:48:26;;;;;;;6.90;4.80;;;;;;;22.45;73.02;100306.09;5053305;28;20021;-66
2022/08/15 07:51:20;;;;;;;7.75;4.63;;;;;;;22.53;72.52;100304.97;5056758;28;20025;-66
2022/08/15 07:54:19;;;;;;;6.10;4.43;;;;;;;22.62;72.65;100303.00;5058519;28;20400;-67
2022/08/15 07:56:58;;;;;;;6.03;5.18;;;;;;;22.70;72.40;100310.75;5060359;28;20028;-67
2022/08/15 07:59:27;;;;;;;6.88;4.80;;;;;;;22.77;72.19;100318.44;5051425;28;20024;-67
2022/08/15 08:02:03;;;;;;;11.43;5.43;;;;;;;22.92;71.73;100324.22;5052549;28;20221;-67
2022/08/15 08:04:29;;;;;;;5.53;5.03;;;;;;;23.22;70.93;100323.38;5057224;28;20074;-67
2022/08/15 08:07:27;;;;;;;6.43;4.38;;;;;;;23.49;69.66;100321.72;5063000;28;20105;-67
2022/08/15 08:10:00;;;;;;;9.18;5.70;;;;;;;23.60;68.80;100324.03;5064908;28;20131;-67
2022/08/15 08:13:03;;;;;;;7.45;5.20;;;;;;;23.53;68.82;100325.13;5058906;28;20033;-67
2022/08/15 08:15:44;;;;;;;8.82;5.05;;;;;;;23.37;69.18;100322.06;5064349;28;20117;-67
2022/08/15 08:18:31;;;;;;;6.65;5.32;;;;;;;23.51;69.13;100330.47;5062660;28;20437;-67
2022/08/15 08:21:03;;;;;;;8.27;4.93;;;;;;;23.70;68.72;100335.19;5062682;28;20140;-67
2022/08/15 08:23:32;;;;;;;11.70;5.35;;;;;;;23.87;67.72;100321.44;5065010;28;20051;-67
2022/08/15 08:26:09;;;;;;;4.35;3.95;;;;;;;23.98;67.52;100329.03;5079282;28;20024;-67
2022/08/15 08:28:42;;;;;;;5.90;5.13;;;;;;;23.96;67.41;100330.84;5080571;28;20024;-67
2022/08/15 08:31:36;;;;;;;8.32;4.80;;;;;;;23.87;67.64;100331.16;5080565;28;20024;-67
2022/08/15 08:34:20;;;;;;;7.20;4.93;;;;;;;23.77;67.29;100332.34;5074013;28;20086;-67
2022/08/15 08:37:02;;;;;;;5.00;4.47;;;;;;;23.70;67.74;100326.41;5085885;28;20102;-66
2022/08/15 08:39:47;;;;;;;5.40;4.45;;;;;;;23.62;68.04;100329.25;5088405;28;20032;-66
2022/08/15 08:42:42;;;;;;;5.72;4.88;;;;;;;23.53;68.29;100327.78;5060852;28;20477;-67
2022/08/15 08:45:14;;;;;;;5.50;4.50;;;;;;;23.45;68.71;100332.44;5062265;28;20347;-66
2022/08/15 08:47:49;;;;;;;8.02;4.82;;;;;;;23.40;68.94;100335.19;5088840;28;20024;-67
2022/08/15 08:50:53;;;;;;;8.73;5.63;;;;;;;23.33;69.61;100336.28;5060238;28;20032;-67
2022/08/15 08:53:31;;;;;;;8.10;4.72;;;;;;;23.26;70.21;100336.47;5072318;28;20480;-67
2022/08/15 08:56:14;;;;;;;8.63;5.45;;;;;;;23.24;70.58;100327.69;5065034;28;20126;-66
2022/08/15 08:58:45;;;;;;;6.53;4.82;;;;;;;23.23;71.42;100339.19;5072621;28;20390;-66
2022/08/15 09:01:19;;;;;;;7.00;6.03;;;;;;;23.17;70.79;100342.00;5073362;28;20454;-67
2022/08/15 09:03:59;;;;;;;8.65;5.43;;;;;;;23.13;71.47;100341.22;5069587;28;20461;-67
2022/08/15 09:06:29;;;;;;;8.73;5.47;;;;;;;22.99;72.01;100338.13;5079106;28;20020;-67
2022/08/15 09:09:03;;;;;;;6.25;5.53;;;;;;;22.99;72.65;100344.25;5073543;28;20025;-67
2022/08/15 09:11:36;;;;;;;8.95;5.68;;;;;;;22.92;72.72;100337.41;5075344;28;20025;-67
2022/08/15 09:14:12;;;;;;;6.25;5.53;;;;;;;22.88;73.28;100341.06;5068341;28;20473;-67
2022/08/15 09:16:38;;;;;;;9.30;6.00;;;;;;;22.86;73.16;100343.75;5067052;28;20029;-67
2022/08/15 09:19:24;;;;;;;8.00;5.40;;;;;;;22.88;73.96;100351.63;5069425;28;20366;-67
2022/08/15 09:21:50;;;;;;;7.32;6.63;;;;;;;22.92;74.52;100347.97;5070220;28;20106;-66
2022/08/15 09:24:17;;;;;;;5.88;5.20;;;;;;;22.98;75.29;100342.53;5084846;28;20360;-67
2022/08/15 09:26:42;;;;;;;7.90;5.35;;;;;;;23.01;76.13;100353.00;5071621;28;20028;-67
2022/08/15 09:29:18;;;;;;;7.82;5.60;;;;;;;23.12;77.18;100343.91;5080728;28;20030;-67
2022/08/15 09:31:53;;;;;;;6.28;5.78;;;;;;;23.19;76.00;100345.47;5077803;28;20024;-67
2022/08/15 09:34:34;;;;;;;6.43;5.60;;;;;;;23.30;76.51;100346.94;5072149;28;20538;-67
2022/08/15 09:37:12;;;;;;;9.27;5.45;;;;;;;23.37;76.08;100345.84;5081716;28;20034;-67
2022/08/15 09:40:34;;;;;;;7.45;5.78;;;;;;;23.44;75.81;100350.06;5069263;28;20032;-66
2022/08/15 09:43:29;;;;;;;6.93;6.22;;;;;;;23.51;73.81;100346.31;5011681;28;20049;-67
2022/08/15 09:45:59;;;;;;;9.98;6.50;;;;;;;23.51;72.99;100345.47;5010253;28;20462;-66
2022/08/15 09:48:34;;;;;;;8.43;5.80;;;;;;;23.62;72.47;100347.78;5072476;28;20391;-66
2022/08/15 09:51:20;;;;;;;7.05;5.20;;;;;;;23.66;71.81;100344.13;5085960;28;20044;-66
2022/08/15 09:54:12;;;;;;;5.95;5.28;;;;;;;23.79;72.00;100344.63;5087349;28;20051;-67
2022/08/15 09:56:38;;;;;;;7.30;5.03;;;;;;;23.88;71.12;100354.03;5075195;28;20387;-67
2022/08/15 09:59:10;;;;;;;5.75;5.05;;;;;;;23.96;71.24;100352.00;5086789;28;20082;-67
2022/08/15 10:02:08;;;;;;;6.97;6.25;;;;;;;23.90;71.58;100352.22;5087518;28;20028;-67
2022/08/15 10:04:48;;;;;;;7.45;5.90;;;;;;;23.74;71.81;100350.06;5087371;28;20028;-67
2022/08/15 10:07:13;;;;;;;7.45;5.25;;;;;;;23.68;72.17;100352.88;5087850;28;20542;-67
2022/08/15 10:10:00;;;;;;;5.82;5.30;;;;;;;23.67;72.28;100345.88;5087021;28;20114;-67
2022/08/15 10:12:26;;;;;;;7.13;5.65;;;;;;;23.73;72.34;100348.31;5087722;28;20111;-67
2022/08/15 10:14:51;;;;;;;6.45;5.85;;;;;;;23.65;73.04;100358.28;5087364;28;20030;-67
2022/08/15 10:17:34;;;;;;;7.22;6.22;;;;;;;23.71;71.61;100352.78;5087218;28;20028;-67
2022/08/15 10:20:18;;;;;;;7.68;5.80;;;;;;;23.72;72.41;100353.66;5087071;28;20457;-67
2022/08/15 10:22:59;;;;;;;6.10;5.47;;;;;;;23.73;72.00;100355.38;5083478;28;20024;-67
2022/08/15 10:25:43;;;;;;;5.88;5.38;;;;;;;23.77;72.03;100350.84;5087398;28;20477;-67
2022/08/15 10:28:11;;;;;;;6.30;5.13;;;;;;;23.87;72.43;100347.88;5086972;28;20103;-67
2022/08/15 10:30:40;;;;;;;6.40;5.80;;;;;;;23.93;71.70;100362.69;5086228;28;20024;-67
2022/08/15 10:33:26;;;;;;;9.05;6.47;;;;;;;23.77;72.00;100350.84;5086961;28;20024;-67
2022/08/15 10:35:55;;;;;;;6.95;6.03;;;;;;;23.72;72.45;100359.81;5087225;28;20039;-67
2022/08/15 10:38:28;;;;;;;5.53;4.90;;;;;;;23.87;72.44;100362.91;5086832;28;20019;-67
2022/08/15 10:40:59;;;;;;;6.47;5.35;;;;;;;23.91;71.93;100361.88;5086813;28;20040;-67
2022/08/15 10:43:46;;;;;;;7.20;5.60;;;;;;;23.97;72.68;100360.81;5086472;28;20028;-67
2022/08/15 10:46:26;;;;;;;8.38;6.05;;;;;;;24.01;72.56;100361.59;5086366;28;20032;-67
2022/08/15 10:49:04;;;;;;;7.15;5.10;;;;;;;24.05;72.34;100358.78;5072364;28;20396;-67
2022/08/15 10:51:43;;;;;;;6.47;5.78;;;;;;;24.05;71.58;100360.59;5086897;28;20078;-68
2022/08/15 10:54:22;;;;;;;7.45;5.35;;;;;;;23.91;71.62;100369.81;5086646;28;20081;-67
2022/08/15 10:56:54;;;;;;;6.20;5.43;;;;;;;23.86;71.37;100359.38;5086608;28;20078;-67
2022/08/15 10:59:25;;;;;;;7.95;5.63;;;;;;;23.78;71.49;100365.84;5086799;28;20428;-67
2022/08/15 11:01:51;;;;;;;5.95;5.15;;;;;;;23.75;71.90;100365.00;5086513;28;20423;-67
2022/08/15 11:04:35;;;;;;;11.38;5.38;;;;;;;23.66;72.23;100361.75;5087057;28;20024;-67
2022/08/15 11:07:16;;;;;;;9.52;5.15;;;;;;;23.65;72.06;100368.84;5086768;28;20073;-66
2022/08/15 11:09:42;;;;;;;8.48;5.38;;;;;;;23.63;72.42;100368.91;5086547;28;20024;-67
2022/08/15 11:12:08;;;;;;;8.10;5.72;;;;;;;23.64;72.43;100369.75;5084657;28;20023;-66
2022/08/15 11:14:42;;;;;;;8.93;5.60;;;;;;;23.62;73.27;100361.88;5087385;28;20134;-67
2022/08/15 11:17:18;;;;;;;8.48;4.90;;;;;;;23.60;72.58;100363.69;5086804;28;20424;-67
2022/08/15 11:19:49;;;;;;;10.00;5.90;;;;;;;23.58;72.09;100362.91;5086930;28;20024;-66
2022/08/15 11:22:35;;;;;;;5.80;5.20;;;;;;;23.50;72.09;100359.59;5085935;28;20016;-67
2022/08/15 11:25:12;;;;;;;6.97;5.53;;;;;;;23.53;72.58;100370.06;5086599;28;20028;-67
2022/08/15 11:27:37;;;;;;;5.30;4.72;;;;;;;23.59;72.60;100366.38;5086681;28;20148;-67
2022/08/15 11:30:06;;;;;;;6.95;6.25;;;;;;;23.54;72.37;100369.19;5086861;28;20104;-66
2022/08/15 11:32:37;;;;;;;6.00;5.40;;;;;;;23.61;72.79;100372.50;5086359;28;20035;-67
2022/08/15 11:35:20;;;;;;;6.53;4.95;;;;;;;23.66;71.91;100365.28;5086418;28;20081;-67
2022/08/15 11:37:47;;;;;;;6.97;5.97;;;;;;;23.69;71.69;100366.97;5064288;28;20070;-66
2022/08/15 11:40:27;;;;;;;6.55;5.50;;;;;;;23.74;72.59;100373.00;5066450;28;20451;-66
2022/08/15 11:42:53;;;;;;;;;;;;;;;23.83;74.55;100372.72;5064344;28;20132;-67
2022/08/15 11:45:28;;;;;;;5.70;5.13;;;;;;;23.96;74.04;100367.88;5078755;28;20351;-67
2022/08/15 11:47:55;;;;;;;9.27;5.65;;;;;;;24.09;72.65;100375.44;5084476;28;20035;-67
2022/08/15 11:50:29;;;;;;;6.90;5.00;;;;;;;24.20;71.70;100375.97;5082380;28;20369;-67
2022/08/15 11:52:58;;;;;;;5.30;4.82;;;;;;;24.30;70.50;100370.41;5071789;28;20384;-68
2022/08/15 11:55:26;;;;;;;8.00;5.15;;;;;;;24.41;69.63;100368.25;5058691;28;20024;-67